• Join FlightAware (Why Join?)
  • Login
  • US Flag 
04:15AM EDT


 

Airport Tracker/Info


-or-


 

Live Flight TrackerFlight Track Log ✈ VOZ1556 ✈ 30-Aug-2013 ✈ YHBA / HVB - YSSY / SYD

Flight Track Log - Related Links

Times and Time Zones

All times are in EDT time to prevent confusion due to time zone crossing. See the VOZ1556 flight status page for this flight to view local times or setup timezone preferences in your user account.

Time Position Orientation Groundspeed Altitude Reporting Facility
EDT Latitude Longitude Course Direction KTS MPH feet Rate Location/Type
10:41PM -25.3851 152.9252 152° Southeast 258 297 5,500  Level Aus ATC (RADAR)
10:42PM -25.4890 152.9875 152° Southeast 269 310 10,900 2,820 Climbing Aus ATC (RADAR)
10:43PM -25.5636 153.0318 152° Southeast 311 358 12,900 2,280 Climbing Aus ATC (RADAR)
10:44PM -25.6243 153.0684 152° Southeast 333 383 14,900 2,820 Climbing Aus ATC (RADAR)
10:45PM -25.6714 153.0969 151° Southeast 333 383 16,700 2,640 Climbing Aus ATC (RADAR)
10:46PM -25.7408 153.1389 151° Southeast 342 394 18,700 2,340 Climbing Aus ATC (RADAR)
10:47PM -25.8747 153.1907 161° South 344 396 22,200 2,160 Climbing Aus ATC (RADAR)
10:48PM -25.9209 153.2072 162° South 351 404 23,100 1,440 Climbing Aus ATC (RADAR)
10:49PM -26.0166 153.2398 163° South 370 426 24,400 1,260 Climbing Aus ATC (RADAR)
10:49PM -26.0847 153.2635 163° South 386 444 25,200 1,320 Climbing Aus ATC (RADAR)
10:50PM -26.1457 153.2848 163° South 393 452 26,100 1,500 Climbing Aus ATC (RADAR)
10:51PM -26.2248 153.3123 163° South 397 457 27,200 1,500 Climbing Aus ATC (RADAR)
10:51PM -26.2783 153.3310 163° South 403 464 28,000 1,260 Climbing Aus ATC (RADAR)
10:52PM -26.4133 153.3786 162° South 410 472 29,500 1,200 Climbing Aus ATC (RADAR)
10:53PM -26.4868 153.4041 163° South 414 476 30,300 1,080 Climbing Aus ATC (RADAR)
10:54PM -26.5798 153.4364 163° South 420 483 31,200 1,020 Climbing Aus ATC (RADAR)
10:55PM -26.6640 153.4657 163° South 423 487 32,000 960 Climbing Aus ATC (RADAR)
10:55PM -26.7302 153.4855 165° South 423 487 32,500 1,200 Climbing Aus ATC (RADAR)
10:56PM -26.8198 153.4715 188° South 388 447 33,700 1,260 Climbing Aus ATC (RADAR)
10:58PM -26.9989 153.4305 192° South 371 427 35,900 1,080 Climbing Aus ATC (RADAR)
10:59PM -27.0992 153.4077 191° South 369 425 36,700 720 Climbing Aus ATC (RADAR)
10:59PM -27.1742 153.3908 191° South 367 422 37,200 660 Climbing Aus ATC (RADAR)
11:00PM -27.2332 153.3776 191° South 370 426 37,600 660 Climbing Aus ATC (RADAR)
11:01PM -27.3081 153.3602 192° South 368 423 38,100 240 Climbing Aus ATC (RADAR)
11:02PM -27.4419 153.3032 201° Southwest 367 422 38,200  Climbing Aus ATC (RADAR)
11:03PM -27.5243 153.2563 207° Southwest 363 418 38,200  Level Aus ATC (RADAR)
11:04PM -27.5761 153.2259 208° Southwest 364 419 38,200  Level Aus ATC (RADAR)
11:05PM -27.6507 153.1827 207° Southwest 364 419 38,200  Level Aus ATC (RADAR)
11:05PM -27.7029 153.1522 207° Southwest 364 419 38,200  Level Aus ATC (RADAR)
11:06PM -27.7698 153.1125 208° Southwest 367 422 38,200  Level Aus ATC (RADAR)
11:07PM -27.9109 153.0296 207° Southwest 364 419 38,200  Level Aus ATC (RADAR)
11:08PM -27.9553 153.0033 208° Southwest 364 419 38,200  Level Aus ATC (RADAR)
11:09PM -28.0450 152.9505 207° Southwest 365 420 38,200  Level Aus ATC (RADAR)
11:10PM -28.1296 152.9066 205° Southwest 367 422 38,200  Level Aus ATC (RADAR)
11:10PM -28.1854 152.8816 201° Southwest 370 426 38,200  Level Aus ATC (RADAR)
11:11PM -28.2647 152.8464 201° Southwest 368 423 38,200  Level Aus ATC (RADAR)
11:13PM -28.4147 152.7794 201° Southwest 366 421 38,200  Level Aus ATC (RADAR)
11:14PM -28.5091 152.7372 201° Southwest 366 421 38,200  Level Aus ATC (RADAR)
11:15PM -28.5800 152.7057 201° Southwest 365 420 38,200  Level Aus ATC (RADAR)
11:15PM -28.6351 152.6811 201° Southwest 365 420 38,200  Level Aus ATC (RADAR)
11:16PM -28.7138 152.6460 201° Southwest 365 420 38,200  Level Aus ATC (RADAR)
11:17PM -28.8382 152.5887 202° Southwest 365 420 38,200  Level Aus ATC (RADAR)
11:18PM -28.8858 152.5684 200° South 364 419 38,200  Level Aus ATC (RADAR)
11:19PM -28.9788 152.5269 201° Southwest 359 413 38,200  Level Aus ATC (RADAR)
11:20PM -29.0397 152.4995 201° Southwest 354 407 38,200  Level Aus ATC (RADAR)
11:20PM -29.1081 152.4687 201° Southwest 353 406 38,200  Level Aus ATC (RADAR)
11:21PM -29.1915 152.4291 202° Southwest 354 407 38,200  Level Aus ATC (RADAR)
11:22PM -29.2529 152.4025 201° Southwest 351 404 38,200  Level Aus ATC (RADAR)
11:23PM -29.3523 152.3577 201° Southwest 359 413 38,200  Level Aus ATC (RADAR)
11:24PM -29.4353 152.3183 202° Southwest 355 409 38,200  Level Aus ATC (RADAR)
11:25PM -29.5127 152.2857 200° South 359 413 38,200  Level Aus ATC (RADAR)
11:25PM -29.5661 152.2611 202° Southwest 355 409 38,200  Level Aus ATC (RADAR)
11:26PM -29.6346 152.2287 202° Southwest 354 407 38,200  Level Aus ATC (RADAR)
11:27PM -29.7341 152.1828 202° Southwest 357 411 38,200 -60 Level Aus ATC (RADAR)
11:28PM -29.8568 152.1267 202° Southwest 356 410 38,100 -60 Descending Aus ATC (RADAR)
11:29PM -29.9026 152.1054 202° Southwest 356 410 38,100  Level Aus ATC (RADAR)
11:30PM -29.9565 152.0806 202° Southwest 356 410 38,100  Level Aus ATC (RADAR)
11:30PM -30.0258 152.0487 202° Southwest 358 412 38,100  Level Aus ATC (RADAR)
11:31PM -30.0871 152.0196 202° Southwest 357 411 38,100  Level Aus ATC (RADAR)
11:32PM -30.1566 151.9872 202° Southwest 361 415 38,100  Level Aus ATC (RADAR)
11:33PM -30.3099 151.9158 202° Southwest 357 411 38,100  Level Aus ATC (RADAR)
11:34PM -30.3866 151.8804 202° Southwest 357 411 38,100  Level Aus ATC (RADAR)
11:35PM -30.4557 151.8488 202° Southwest 358 412 38,100  Level Aus ATC (RADAR)
11:36PM -30.5095 151.8238 202° Southwest 359 413 38,100  Level Aus ATC (RADAR)
11:36PM -30.5862 151.7880 202° Southwest 358 412 38,100  Level Aus ATC (RADAR)
11:37PM -30.6630 151.7518 202° Southwest 359 413 38,100  Level Aus ATC (RADAR)
11:38PM -30.7708 151.7010 202° Southwest 361 415 38,100  Level Aus ATC (RADAR)
11:39PM -30.8635 151.6582 202° Southwest 359 413 38,100  Level Aus ATC (RADAR)
11:40PM -30.9327 151.6256 202° Southwest 360 414 38,100  Level Aus ATC (RADAR)
11:41PM -30.9863 151.6004 202° Southwest 357 411 38,100  Level Aus ATC (RADAR)
11:41PM -31.0628 151.5637 202° Southwest 358 412 38,100  Level Aus ATC (RADAR)
11:43PM -31.2083 151.4957 202° Southwest 356 410 38,100  Level Aus ATC (RADAR)
11:44PM -31.2855 151.4607 201° Southwest 357 411 38,100  Level Aus ATC (RADAR)
11:44PM -31.3390 151.4352 202° Southwest 356 410 38,100  Level Aus ATC (RADAR)
11:45PM -31.4231 151.3955 202° Southwest 356 410 38,100  Level Aus ATC (RADAR)
11:46PM -31.4776 151.3718 200° South 357 411 38,100  Level Aus ATC (RADAR)
11:47PM -31.5471 151.3407 201° Southwest 357 411 38,100  Level Aus ATC (RADAR)
11:49PM -31.7120 151.2664 201° Southwest 354 407 38,100 -60 Level Aus ATC (RADAR)
11:50PM -31.8176 151.2190 201° Southwest 359 413 38,000 -60 Descending Aus ATC (RADAR)
11:50PM -31.8717 151.1946 201° Southwest 358 412 38,000 60 Level Aus ATC (RADAR)
11:51PM -31.9285 151.1692 201° Southwest 353 406 38,100 60 Climbing Aus ATC (RADAR)
11:52PM -32.0053 151.1346 201° Southwest 353 406 38,100  Level Aus ATC (RADAR)
11:53PM -32.1554 151.0669 201° Southwest 355 409 38,100 -60 Level Aus ATC (RADAR)
11:54PM -32.2349 151.0321 200° South 351 404 38,000 -180 Descending Aus ATC (RADAR)
11:55PM -32.2928 151.0055 201° Southwest 352 405 37,900 -2,220 Descending Aus ATC (RADAR)
11:56PM -32.3613 150.9741 201° Southwest 353 406 35,000 -3,840 Descending Aus ATC (RADAR)
11:56PM -32.4178 150.9489 201° Southwest 367 422 32,800 -3,240 Descending Aus ATC (RADAR)
11:57PM -32.4922 150.9196 198° South 372 428 30,700 -2,520 Descending Aus ATC (RADAR)
11:58PM -32.6509 150.9396 174° South 397 457 27,300 -2,460 Descending Aus ATC (RADAR)
11:59PM -32.7366 150.9549 171° South 373 429 25,200 -2,340 Descending Aus ATC (RADAR)
12:00AM -32.7961 150.9652 172° South 371 427 24,000 -2,040 Descending Aus ATC (RADAR)
12:01AM -32.9644 150.9954 171° South 366 421 20,800 -1,980 Descending Aus ATC (RADAR)
12:02AM -33.0529 151.0111 172° South 370 426 19,100 -1,980 Descending Aus ATC (RADAR)
12:04AM -33.2025 151.0375 172° South 341 392 16,100 -1,740 Descending Aus ATC (RADAR)
12:05AM -33.2935 151.0540 171° South 345 397 14,800 -1,500 Descending Aus ATC (RADAR)
12:06AM -33.3765 151.0708 170° South 337 388 13,400 -1,800 Descending Aus ATC (RADAR)
12:06AM -33.4389 151.0824 171° South 331 381 12,100 -1,920 Descending Aus ATC (RADAR)
12:07AM -33.5161 151.0974 171° South 327 376 10,600 -1,740 Descending Aus ATC (RADAR)
12:08AM -33.5772 151.1094 171° South 324 373 9,500 -1,260 Descending Aus ATC (RADAR)
12:10AM -33.7357 151.1894 157° South 283 326 7,300 -1,200 Descending Aus ATC (RADAR)
12:11AM -33.8055 151.2316 153° Southeast 292 336 6,100 -720 Descending Aus ATC (RADAR)
12:12AM -33.8686 151.2696 153° Southeast 283 326 6,000 -120 Descending Aus ATC (RADAR)
12:12AM -33.9166 151.2984 154° Southeast 283 326 6,000  Level Aus ATC (RADAR)
12:13AM -33.9627 151.3240 155° Southeast 293 337 6,000 -360 Level Aus ATC (RADAR)
12:14AM -34.0531 151.3483 167° South 283 326 5,400 -900 Descending Aus ATC (RADAR)
12:15AM -34.0980 151.3603 168° South 283 326 4,500 -1,320 Descending Aus ATC (RADAR)
12:15AM -34.1399 151.3443 198° South 260 299 3,800 -1,020 Descending Aus ATC (RADAR)
12:16AM -34.1506 151.2851 258° West 223 257 3,100 -720 Descending Aus ATC (RADAR)
12:17AM -34.1063 151.2417 321° Northwest 182 209 2,600 -660 Descending Aus ATC (RADAR)
12:18AM -34.0763 151.2213 331° Northwest 162 186 2,000 -720 Descending Aus ATC (RADAR)
12:19AM -34.0397 151.2116 348° North 139 160 1,400 -660 Descending Aus ATC (RADAR)
12:19AM -34.0181 151.2059 348° North 136 157 1,000 -720 Descending Aus ATC (RADAR)
12:20AM -33.9980 151.2008 348° North 126 145 600 -660 Descending Aus ATC (RADAR)
12:21AM -33.9706 151.1939 348° North 125 144 100 -660 Descending Aus ATC (RADAR)